Time;durP1;ratioP1;P1;durP2;ratioP2;P2;SDS_P1;SDS_P2;PMS_P1;PMS_P2;Temp;Humidity;BMP_temperature;BMP_pressure;BME280_temperature;BME280_humidity;BME280_pressure;Samples;Min_cycle;Max_cycle;Signal;HPM_P1;HPM_P2
2022/07/30 00:02:07;;;;;;;79.30;75.38;;;;;;;;;;5035620;28;20032;-63
2022/07/30 00:04:32;;;;;;;85.40;81.18;;;;;;;;;;5036190;28;20067;-63
2022/07/30 00:06:59;;;;;;;83.45;79.32;;;;;;;;;;5036990;28;20062;-63
2022/07/30 00:09:24;;;;;;;89.88;85.38;;;;;;;;;;5037959;28;20039;-62
2022/07/30 00:11:50;;;;;;;96.45;91.68;;;;;;;;;;5047417;28;20024;-62
2022/07/30 00:14:15;;;;;;;101.68;96.63;;;;;;;;;;5040464;28;20033;-62
2022/07/30 00:16:40;;;;;;;96.85;92.03;;;;;;;;;;5042748;28;20526;-62
2022/07/30 00:19:06;;;;;;;88.20;83.85;;;;;;;;;;5041630;28;20035;-63
2022/07/30 00:21:32;;;;;;;96.75;91.97;;;;;;;;;;5043672;28;20040;-62
2022/07/30 00:23:57;;;;;;;107.60;102.28;;;;;;;;;;5044317;28;20029;-62
2022/07/30 00:26:22;;;;;;;119.97;114.03;;;;;;;;;;5039698;28;20033;-62
2022/07/30 00:28:48;;;;;;;118.03;112.15;;;;;;;;;;5041068;28;20082;-62
2022/07/30 00:31:13;;;;;;;121.53;115.50;;;;;;;;;;5036735;28;20115;-62
2022/07/30 00:33:38;;;;;;;96.60;91.72;;;;;;;;;;5041465;28;20056;-59
2022/07/30 00:36:04;;;;;;;77.55;73.55;;;;;;;;;;5042643;28;20112;-59
2022/07/30 00:38:29;;;;;;;69.00;65.55;;;;;;;;;;5040261;28;20120;-59
2022/07/30 00:40:54;;;;;;;69.55;66.05;;;;;;;;;;5038808;28;20161;-59
2022/07/30 00:43:20;;;;;;;67.90;64.47;;;;;;;;;;5039735;28;20028;-59
2022/07/30 00:45:46;;;;;;;42.80;40.60;;;;;;;;;;5040858;28;20041;-59
2022/07/30 00:48:14;;;;;;;47.55;44.70;;;;;;;;;;5040261;28;20035;-59
2022/07/30 00:50:40;;;;;;;45.00;42.67;;;;;;;;;;5043052;28;20593;-59
2022/07/30 00:53:07;;;;;;;54.35;51.45;;;;;;;;;;5036852;28;20056;-60
2022/07/30 00:55:33;;;;;;;41.20;39.03;;;;;;;;;;5041351;28;20021;-60
2022/07/30 00:57:58;;;;;;;40.55;38.35;;;;;;;;;;5042177;28;20091;-60
2022/07/30 01:00:24;;;;;;;37.90;35.92;;;;;;;;;;5039894;28;20589;-60
2022/07/30 01:02:50;;;;;;;26.55;25.15;;;;;;;;;;5043249;28;20045;-60
2022/07/30 01:05:15;;;;;;;29.08;27.48;;;;;;;;;;5035538;28;20064;-60
2022/07/30 01:07:41;;;;;;;24.88;23.55;;;;;;;;;;5041061;28;20135;-60
2022/07/30 01:10:08;;;;;;;31.35;29.55;;;;;;;;;;5042396;28;20367;-60
2022/07/30 01:12:34;;;;;;;43.85;41.65;;;;;;;;;;5039129;28;20800;-60
2022/07/30 01:15:02;;;;;;;39.00;37.00;;;;;;;;;;5039836;28;20390;-60
2022/07/30 01:17:27;;;;;;;32.65;30.85;;;;;;;;;;5038851;28;20039;-60
2022/07/30 01:19:59;;;;;;;41.83;39.67;;;;;;;;;;5040971;28;20655;-60
2022/07/30 01:22:27;;;;;;;36.83;34.75;;;;;;;;;;5036190;28;20124;-60
2022/07/30 01:25:06;;;;;;;49.40;46.85;;;;;;;;;;5040044;28;20064;-60
2022/07/30 01:27:35;;;;;;;53.30;50.58;;;;;;;;;;5040826;28;20119;-60
2022/07/30 01:30:03;;;;;;;38.17;36.15;;;;;;;;;;5040420;28;20152;-60
2022/07/30 01:32:30;;;;;;;39.63;37.58;;;;;;;;;;5043436;28;20033;-60
2022/07/30 01:34:58;;;;;;;38.80;36.75;;;;;;;;;;5041306;28;20123;-60
2022/07/30 01:37:24;;;;;;;51.10;48.50;;;;;;;;;;5037777;28;20029;-60
2022/07/30 01:39:51;;;;;;;43.60;41.38;;;;;;;;;;5036588;28;20029;-60
2022/07/30 01:42:18;;;;;;;45.30;42.85;;;;;;;;;;5037470;28;20025;-60
2022/07/30 01:44:44;;;;;;;36.70;34.78;;;;;;;;;;5038876;28;20045;-60
2022/07/30 01:47:11;;;;;;;41.33;39.15;;;;;;;;;;5037474;28;20029;-61
2022/07/30 01:49:40;;;;;;;45.17;42.85;;;;;;;;;;5046455;28;20128;-60
2022/07/30 01:52:07;;;;;;;62.67;59.50;;;;;;;;;;5044600;28;20432;-60
2022/07/30 01:54:33;;;;;;;47.45;45.00;;;;;;;;;;5044669;28;20568;-60
2022/07/30 01:57:00;;;;;;;68.90;65.38;;;;;;;;;;5042605;28;20076;-60
2022/07/30 01:59:28;;;;;;;56.78;53.85;;;;;;;;;;5042986;28;20021;-60
2022/07/30 02:01:54;;;;;;;54.70;51.92;;;;;;;;;;5042989;28;20059;-60
2022/07/30 02:04:19;;;;;;;67.45;64.03;;;;;;;;;;5039751;28;20462;-60
2022/07/30 02:06:56;;;;;;;76.75;72.90;;;;;;;;;;5042336;28;20036;-60
2022/07/30 02:09:37;;;;;;;67.45;64.03;;;;;;;;;;5040990;28;20052;-60
2022/07/30 02:14:53;;;;;;;65.28;61.95;;;;;;;;;;5042708;28;20041;-60
2022/07/30 02:17:27;;;;;;;57.10;54.20;;;;;;;;;;5045597;28;20028;-60
2022/07/30 02:19:56;;;;;;;51.05;48.42;;;;;;;;;;5041770;28;20036;-61
2022/07/30 02:22:24;;;;;;;49.70;47.05;;;;;;;;;;5043008;28;20090;-60
2022/07/30 02:24:51;;;;;;;53.10;50.40;;;;;;;;;;5048045;28;20037;-60
2022/07/30 02:27:25;;;;;;;67.28;63.88;;;;;;;;;;5042283;28;20047;-61
2022/07/30 02:29:53;;;;;;;38.70;36.70;;;;;;;;;;5045218;28;20402;-60
2022/07/30 02:32:22;;;;;;;37.17;35.17;;;;;;;;;;5044075;28;20029;-61
2022/07/30 02:34:50;;;;;;;33.22;31.52;;;;;;;;;;5048343;28;20033;-61
2022/07/30 02:37:21;;;;;;;53.63;50.85;;;;;;;;;;5043005;28;20064;-61
2022/07/30 02:39:48;;;;;;;67.10;63.70;;;;;;;;;;5036642;28;20025;-61
2022/07/30 02:42:15;;;;;;;118.25;112.38;;;;;;;;;;5037919;28;20478;-60
2022/07/30 02:44:43;;;;;;;78.93;74.93;;;;;;;;;;5039131;28;20045;-61
2022/07/30 02:47:09;;;;;;;55.90;53.05;;;;;;;;;;5040751;28;20106;-60
2022/07/30 02:49:38;;;;;;;68.15;64.65;;;;;;;;;;5045360;28;20059;-60
2022/07/30 02:52:07;;;;;;;35.67;33.80;;;;;;;;;;5038789;28;20105;-61
2022/07/30 02:54:35;;;;;;;40.03;37.95;;;;;;;;;;5044203;28;20029;-60
2022/07/30 02:57:02;;;;;;;41.42;39.25;;;;;;;;;;5044888;28;20111;-61
2022/07/30 02:59:30;;;;;;;58.67;55.67;;;;;;;;;;5040893;28;20026;-60
2022/07/30 03:01:57;;;;;;;39.58;37.50;;;;;;;;;;5040447;28;20060;-61
2022/07/30 03:04:24;;;;;;;39.63;37.58;;;;;;;;;;5042521;28;20406;-61
2022/07/30 03:06:50;;;;;;;35.17;33.28;;;;;;;;;;5062539;28;20156;-60
2022/07/30 03:09:17;;;;;;;29.48;27.90;;;;;;;;;;5047794;28;20029;-60
2022/07/30 03:11:43;;;;;;;29.17;27.58;;;;;;;;;;5038818;28;20033;-60
2022/07/30 03:14:10;;;;;;;24.75;23.35;;;;;;;;;;5039125;28;20424;-61
2022/07/30 03:16:37;;;;;;;27.95;26.45;;;;;;;;;;5038378;28;20068;-61
2022/07/30 03:19:06;;;;;;;20.50;19.38;;;;;;;;;;5036977;28;20119;-61
2022/07/30 03:21:34;;;;;;;24.15;22.83;;;;;;;;;;5038394;28;20029;-60
2022/07/30 03:24:02;;;;;;;26.02;24.58;;;;;;;;;;5042333;28;20538;-60
2022/07/30 03:26:28;;;;;;;31.63;29.95;;;;;;;;;;5041705;28;20040;-60
2022/07/30 03:28:54;;;;;;;38.05;36.03;;;;;;;;;;5040625;28;20040;-60
2022/07/30 03:31:20;;;;;;;33.45;31.70;;;;;;;;;;5041071;28;20028;-61
2022/07/30 03:33:46;;;;;;;30.17;28.17;;;;;;;;;;5047446;28;20067;-60
2022/07/30 03:36:12;;;;;;;30.25;28.60;;;;;;;;;;5039952;28;20040;-60
2022/07/30 03:38:41;;;;;;;28.15;26.45;;;;;;;;;;5043776;28;20961;-60
2022/07/30 03:41:07;;;;;;;23.27;22.00;;;;;;;;;;5044374;28;20029;-60
2022/07/30 03:43:34;;;;;;;22.67;21.38;;;;;;;;;;5036746;28;20044;-60
2022/07/30 03:46:01;;;;;;;23.80;22.42;;;;;;;;;;5039303;28;20040;-60
2022/07/30 03:48:27;;;;;;;24.30;23.00;;;;;;;;;;5038473;28;20033;-60
2022/07/30 03:50:53;;;;;;;23.70;22.35;;;;;;;;;;5038563;28;20096;-60
2022/07/30 03:53:22;;;;;;;24.80;23.45;;;;;;;;;;5040340;28;20099;-60
2022/07/30 03:55:48;;;;;;;26.30;24.60;;;;;;;;;;5040644;28;20766;-60
2022/07/30 03:58:14;;;;;;;24.00;22.67;;;;;;;;;;5039345;28;20061;-60
2022/07/30 04:00:40;;;;;;;26.50;24.17;;;;;;;;;;5038399;28;20463;-61
2022/07/30 04:03:06;;;;;;;25.67;24.30;;;;;;;;;;5041021;28;20036;-61
2022/07/30 04:05:31;;;;;;;25.55;24.15;;;;;;;;;;5042654;28;20664;-60
2022/07/30 04:07:57;;;;;;;24.15;22.85;;;;;;;;;;5041014;28;20112;-60
2022/07/30 04:10:23;;;;;;;25.10;23.73;;;;;;;;;;5037259;28;20033;-61
2022/07/30 04:12:48;;;;;;;20.45;19.30;;;;;;;;;;5040929;28;20124;-61
2022/07/30 04:15:13;;;;;;;24.95;23.55;;;;;;;;;;5036080;28;20120;-61
2022/07/30 04:17:44;;;;;;;21.15;19.98;;;;;;;;;;5038472;28;20382;-61
2022/07/30 04:20:19;;;;;;;18.25;17.15;;;;;;;;;;5036984;28;20029;-61
2022/07/30 04:22:45;;;;;;;22.45;21.25;;;;;;;;;;5043395;28;20454;-61
2022/07/30 04:25:12;;;;;;;20.58;19.33;;;;;;;;;;5040351;28;20029;-62
2022/07/30 04:27:38;;;;;;;21.88;20.67;;;;;;;;;;5042199;28;20442;-60
2022/07/30 04:30:04;;;;;;;24.27;22.98;;;;;;;;;;5040131;28;20120;-61
2022/07/30 04:32:31;;;;;;;28.60;27.10;;;;;;;;;;5038908;28;20051;-61
2022/07/30 04:34:56;;;;;;;26.63;25.23;;;;;;;;;;5043444;28;20124;-61
2022/07/30 04:37:24;;;;;;;30.70;29.08;;;;;;;;;;5035690;28;20924;-61
2022/07/30 04:39:53;;;;;;;27.73;26.23;;;;;;;;;;5042190;28;20379;-61
2022/07/30 04:42:19;;;;;;;24.08;22.70;;;;;;;;;;5039491;28;20029;-62
2022/07/30 04:44:44;;;;;;;18.98;17.88;;;;;;;;;;5036914;28;20486;-62
2022/07/30 04:47:09;;;;;;;22.27;21.05;;;;;;;;;;5040046;28;20032;-62
2022/07/30 04:49:35;;;;;;;26.10;24.70;;;;;;;;;;5036946;28;20029;-62
2022/07/30 04:52:03;;;;;;;19.50;18.40;;;;;;;;;;5037011;28;20373;-62
2022/07/30 04:54:37;;;;;;;20.50;19.35;;;;;;;;;;5037404;28;20033;-62
2022/07/30 04:57:04;;;;;;;22.65;21.13;;;;;;;;;;5042222;28;20474;-62
2022/07/30 04:59:29;;;;;;;20.10;18.90;;;;;;;;;;5043861;28;20109;-62
2022/07/30 05:01:57;;;;;;;18.80;17.75;;;;;;;;;;5038625;28;20120;-62
2022/07/30 05:04:24;;;;;;;14.80;13.57;;;;;;;;;;5039755;28;20426;-61
2022/07/30 05:06:51;;;;;;;16.48;15.55;;;;;;;;;;5035972;28;20639;-61
2022/07/30 05:09:16;;;;;;;15.65;14.75;;;;;;;;;;5042501;28;20378;-61
2022/07/30 05:11:49;;;;;;;16.42;15.50;;;;;;;;;;5038698;28;20025;-61
2022/07/30 05:14:14;;;;;;;17.55;16.50;;;;;;;;;;5040063;28;20031;-61
2022/07/30 05:16:39;;;;;;;18.08;17.02;;;;;;;;;;5035562;28;20131;-61
2022/07/30 05:19:04;;;;;;;19.75;18.30;;;;;;;;;;5036188;28;20043;-61
2022/07/30 05:21:30;;;;;;;21.85;20.60;;;;;;;;;;5037555;28;20033;-61
2022/07/30 05:23:55;;;;;;;24.15;22.70;;;;;;;;;;5037464;28;20028;-61
2022/07/30 05:26:20;;;;;;;24.70;23.38;;;;;;;;;;5043802;28;20648;-61
2022/07/30 05:28:46;;;;;;;24.27;22.92;;;;;;;;;;5039188;28;20037;-61
2022/07/30 05:31:11;;;;;;;27.08;25.58;;;;;;;;;;5038717;28;20056;-61
2022/07/30 05:33:36;;;;;;;27.98;26.48;;;;;;;;;;5043119;28;20059;-61
2022/07/30 05:36:02;;;;;;;29.05;27.48;;;;;;;;;;5026717;28;20029;-61
2022/07/30 05:38:28;;;;;;;25.95;24.45;;;;;;;;;;5045321;28;20024;-61
2022/07/30 05:40:53;;;;;;;33.20;31.40;;;;;;;;;;5041575;28;20611;-61
2022/07/30 05:43:18;;;;;;;32.40;30.60;;;;;;;;;;5039649;28;20020;-60
2022/07/30 05:45:44;;;;;;;38.65;36.55;;;;;;;;;;5040349;28;20180;-61
2022/07/30 05:48:09;;;;;;;39.03;37.03;;;;;;;;;;5040008;28;20026;-60
2022/07/30 05:50:34;;;;;;;32.78;31.05;;;;;;;;;;5038598;28;20034;-61
2022/07/30 05:53:00;;;;;;;46.05;43.60;;;;;;;;;;5042691;28;20060;-61
2022/07/30 05:55:25;;;;;;;51.72;49.03;;;;;;;;;;5038203;28;20413;-61
2022/07/30 05:57:50;;;;;;;50.58;48.00;;;;;;;;;;5041533;28;20025;-61
2022/07/30 06:00:16;;;;;;;42.90;40.65;;;;;;;;;;5040280;28;20498;-61
2022/07/30 06:02:41;;;;;;;39.10;37.03;;;;;;;;;;5041082;28;20052;-61
2022/07/30 06:05:07;;;;;;;34.55;32.72;;;;;;;;;;5041662;28;20033;-61
2022/07/30 06:07:33;;;;;;;58.33;55.17;;;;;;;;;;5038947;28;20106;-61
2022/07/30 06:09:59;;;;;;;55.58;52.63;;;;;;;;;;5039792;28;20344;-61
2022/07/30 06:12:28;;;;;;;53.33;50.63;;;;;;;;;;5043377;28;20093;-61
2022/07/30 06:14:53;;;;;;;61.30;58.22;;;;;;;;;;5043761;28;20415;-61
2022/07/30 06:17:18;;;;;;;64.70;61.45;;;;;;;;;;5040110;28;20078;-60
2022/07/30 06:19:44;;;;;;;52.00;49.20;;;;;;;;;;5038973;28;20056;-61
2022/07/30 06:22:09;;;;;;;61.97;58.83;;;;;;;;;;5040529;28;20048;-61
2022/07/30 06:24:34;;;;;;;53.65;50.92;;;;;;;;;;5041113;28;20060;-62
2022/07/30 06:27:00;;;;;;;70.60;66.95;;;;;;;;;;5032748;28;20033;-62
2022/07/30 06:29:25;;;;;;;63.85;60.65;;;;;;;;;;5038585;28;20117;-61
2022/07/30 06:31:50;;;;;;;67.88;64.45;;;;;;;;;;5037026;28;20490;-62
2022/07/30 06:34:16;;;;;;;63.25;60.05;;;;;;;;;;5039873;28;20619;-61
2022/07/30 06:36:41;;;;;;;63.10;59.90;;;;;;;;;;5039527;28;20024;-61
2022/07/30 06:39:06;;;;;;;65.60;62.28;;;;;;;;;;5041972;28;20144;-61
2022/07/30 06:41:32;;;;;;;65.63;62.33;;;;;;;;;;5038952;28;20114;-61
2022/07/30 06:43:57;;;;;;;49.97;47.33;;;;;;;;;;5039176;28;20039;-61
2022/07/30 06:46:22;;;;;;;56.83;53.95;;;;;;;;;;5041450;28;20195;-61
2022/07/30 06:48:48;;;;;;;55.50;52.63;;;;;;;;;;5040285;28;20116;-61
2022/07/30 06:51:13;;;;;;;36.85;34.95;;;;;;;;;;5043587;28;20033;-61
2022/07/30 06:53:38;;;;;;;44.80;42.50;;;;;;;;;;5042242;28;20068;-61
2022/07/30 06:56:04;;;;;;;60.28;57.22;;;;;;;;;;5040556;28;20110;-61
2022/07/30 06:58:29;;;;;;;68.10;64.68;;;;;;;;;;5036921;28;20058;-61
2022/07/30 07:00:54;;;;;;;51.38;48.75;;;;;;;;;;5038136;28;20028;-60
2022/07/30 07:03:20;;;;;;;56.88;53.97;;;;;;;;;;5038791;28;20044;-61
2022/07/30 07:05:45;;;;;;;50.55;47.95;;;;;;;;;;5037363;28;20048;-61
2022/07/30 07:08:11;;;;;;;30.85;28.98;;;;;;;;;;5043607;28;20848;-60
2022/07/30 07:10:36;;;;;;;23.50;22.23;;;;;;;;;;5042377;28;20086;-60
2022/07/30 07:13:01;;;;;;;30.63;28.92;;;;;;;;;;5040078;28;20025;-60
2022/07/30 07:15:27;;;;;;;18.52;17.33;;;;;;;;;;5038559;28;20028;-61
2022/07/30 07:17:52;;;;;;;25.75;24.35;;;;;;;;;;5036762;28;20136;-60
2022/07/30 07:20:18;;;;;;;25.33;23.83;;;;;;;;;;5038542;28;20069;-59
2022/07/30 07:22:43;;;;;;;30.90;29.25;;;;;;;;;;5042195;28;20055;-61
2022/07/30 07:25:09;;;;;;;34.83;33.03;;;;;;;;;;5042126;28;20025;-61
2022/07/30 07:27:36;;;;;;;33.85;32.05;;;;;;;;;;5040153;28;20089;-61
2022/07/30 07:30:03;;;;;;;30.13;28.52;;;;;;;;;;5036424;28;20037;-61
2022/07/30 07:32:29;;;;;;;32.78;31.05;;;;;;;;;;5037561;28;20036;-61
2022/07/30 07:34:54;;;;;;;35.00;33.20;;;;;;;;;;5038483;28;20040;-61
2022/07/30 07:37:19;;;;;;;28.60;27.10;;;;;;;;;;5040047;28;20490;-61
2022/07/30 07:39:45;;;;;;;39.08;37.05;;;;;;;;;;5038921;28;20382;-61
2022/07/30 07:42:10;;;;;;;49.00;46.50;;;;;;;;;;5043062;28;20056;-61
2022/07/30 07:44:35;;;;;;;51.83;49.13;;;;;;;;;;5040874;28;20351;-61
2022/07/30 07:47:01;;;;;;;42.42;40.22;;;;;;;;;;5039962;28;20068;-61
2022/07/30 07:49:26;;;;;;;36.45;34.58;;;;;;;;;;5045412;28;20043;-61
2022/07/30 07:51:51;;;;;;;44.40;42.10;;;;;;;;;;5040536;28;20066;-61
2022/07/30 07:54:17;;;;;;;17.58;16.58;;;;;;;;;;5041357;28;20486;-61
2022/07/30 07:56:42;;;;;;;15.93;15.02;;;;;;;;;;5038529;28;20166;-61
2022/07/30 07:59:07;;;;;;;28.20;26.65;;;;;;;;;;5039381;28;20025;-61
2022/07/30 08:01:33;;;;;;;16.50;15.50;;;;;;;;;;5039736;28;20127;-61
2022/07/30 08:03:58;;;;;;;20.35;19.23;;;;;;;;;;5038579;28;20071;-61
2022/07/30 08:06:24;;;;;;;20.20;19.10;;;;;;;;;;5036431;28;20506;-61
2022/07/30 08:08:49;;;;;;;25.77;24.38;;;;;;;;;;5042280;28;20060;-61
2022/07/30 08:11:15;;;;;;;30.00;28.40;;;;;;;;;;5041574;28;20112;-61
2022/07/30 08:13:40;;;;;;;21.23;19.88;;;;;;;;;;5037648;28;20036;-61
2022/07/30 08:16:08;;;;;;;21.92;20.52;;;;;;;;;;5038647;28;20022;-61
2022/07/30 08:18:35;;;;;;;25.85;24.00;;;;;;;;;;5038175;28;20470;-61
2022/07/30 08:21:01;;;;;;;18.75;17.65;;;;;;;;;;5038589;28;20494;-61
2022/07/30 08:23:26;;;;;;;17.10;16.10;;;;;;;;;;5040960;28;20104;-61
2022/07/30 08:25:52;;;;;;;19.33;18.08;;;;;;;;;;5042417;28;20037;-61
2022/07/30 08:28:17;;;;;;;23.45;22.05;;;;;;;;;;5036263;28;20382;-61
2022/07/30 08:30:43;;;;;;;25.00;23.67;;;;;;;;;;5035109;28;20056;-61
2022/07/30 08:33:08;;;;;;;31.92;30.23;;;;;;;;;;5037788;28;20036;-60
2022/07/30 08:35:33;;;;;;;47.83;45.35;;;;;;;;;;5034833;28;20057;-60
2022/07/30 08:37:59;;;;;;;42.30;40.10;;;;;;;;;;5039242;28;20035;-60
2022/07/30 08:40:25;;;;;;;45.70;43.33;;;;;;;;;;5039100;28;20021;-60
2022/07/30 08:42:52;;;;;;;44.50;42.20;;;;;;;;;;5039773;28;20029;-60
2022/07/30 08:45:17;;;;;;;24.52;23.13;;;;;;;;;;5036027;28;20129;-59
2022/07/30 08:47:44;;;;;;;19.45;18.27;;;;;;;;;;5037257;28;20120;-60
2022/07/30 08:50:10;;;;;;;14.10;13.20;;;;;;;;;;5043458;28;20032;-60
2022/07/30 08:52:36;;;;;;;13.73;12.93;;;;;;;;;;5040226;28;20075;-60
2022/07/30 08:55:06;;;;;;;18.92;17.85;;;;;;;;;;5037044;28;20039;-60
2022/07/30 08:57:33;;;;;;;16.17;15.10;;;;;;;;;;5038800;28;20025;-59
2022/07/30 08:59:59;;;;;;;17.17;16.17;;;;;;;;;;5041853;28;20037;-59
2022/07/30 09:02:25;;;;;;;15.88;14.98;;;;;;;;;;5036170;28;20025;-59
2022/07/30 09:04:51;;;;;;;15.82;14.88;;;;;;;;;;5038243;28;20237;-59
2022/07/30 09:07:16;;;;;;;19.23;18.13;;;;;;;;;;5034674;28;20220;-60
2022/07/30 09:09:41;;;;;;;15.48;14.57;;;;;;;;;;5035344;28;20053;-59
2022/07/30 09:12:32;;;;;;;17.52;16.50;;;;;;;;;;5035313;28;20202;-59
2022/07/30 09:15:05;;;;;;;15.50;14.60;;;;;;;;;;5039089;28;20425;-59
2022/07/30 09:17:59;;;;;;;14.48;13.68;;;;;;;;;;5038417;28;20065;-59
2022/07/30 09:20:26;;;;;;;14.05;13.25;;;;;;;;;;5038397;28;20457;-59
2022/07/30 09:22:55;;;;;;;13.20;12.40;;;;;;;;;;5037287;28;20039;-59
2022/07/30 09:25:43;;;;;;;20.13;18.98;;;;;;;;;;5042912;28;20025;-59
2022/07/30 09:28:10;;;;;;;23.55;22.08;;;;;;;;;;5038942;28;20029;-59
2022/07/30 09:30:47;;;;;;;13.23;12.40;;;;;;;;;;5041595;28;20051;-59
2022/07/30 09:33:13;;;;;;;23.15;21.85;;;;;;;;;;5037213;28;20518;-59
2022/07/30 09:35:39;;;;;;;31.38;29.70;;;;;;;;;;5039014;28;20052;-59
2022/07/30 09:38:06;;;;;;;24.40;23.00;;;;;;;;;;5039677;28;20363;-59
2022/07/30 09:40:31;;;;;;;54.85;51.92;;;;;;;;;;5039192;28;20470;-58
2022/07/30 09:43:01;;;;;;;39.47;37.42;;;;;;;;;;5036885;28;20029;-60
2022/07/30 09:45:27;;;;;;;32.30;30.63;;;;;;;;;;5040343;28;20022;-59
2022/07/30 09:47:52;;;;;;;31.90;30.23;;;;;;;;;;5035470;28;20036;-59
2022/07/30 09:50:19;;;;;;;16.02;15.13;;;;;;;;;;5039956;28;20086;-59
2022/07/30 09:52:45;;;;;;;30.92;29.23;;;;;;;;;;5037678;28;20363;-59
2022/07/30 09:55:13;;;;;;;33.47;31.67;;;;;;;;;;5034932;28;20029;-59
2022/07/30 09:57:57;;;;;;;58.00;55.08;;;;;;;;;;5036714;28;20041;-60
2022/07/30 10:00:25;;;;;;;97.15;92.35;;;;;;;;;;5039348;28;20025;-57
2022/07/30 10:02:51;;;;;;;79.00;74.93;;;;;;;;;;5036272;28;20029;-57
2022/07/30 10:05:18;;;;;;;103.10;98.03;;;;;;;;;;5038255;28;20354;-57
2022/07/30 10:07:51;;;;;;;70.43;66.90;;;;;;;;;;5033953;28;20056;-58
2022/07/30 10:10:19;;;;;;;78.00;74.15;;;;;;;;;;5039843;28;20340;-57
2022/07/30 10:12:45;;;;;;;88.22;83.88;;;;;;;;;;5041234;28;20093;-59
2022/07/30 10:15:12;;;;;;;88.90;84.50;;;;;;;;;;5042277;28;20205;-60
2022/07/30 10:17:38;;;;;;;82.38;78.13;;;;;;;;;;5041654;28;20445;-60
2022/07/30 10:20:07;;;;;;;55.92;53.13;;;;;;;;;;5041051;28;20191;-60
2022/07/30 10:22:33;;;;;;;70.40;66.90;;;;;;;;;;5038768;28;20467;-60
2022/07/30 10:24:59;;;;;;;60.22;57.20;;;;;;;;;;5043141;28;20067;-60
2022/07/30 10:27:25;;;;;;;85.15;80.95;;;;;;;;;;5043744;28;20032;-58
2022/07/30 10:29:51;;;;;;;75.85;72.10;;;;;;;;;;5046376;28;20030;-58
2022/07/30 10:32:17;;;;;;;89.00;84.65;;;;;;;;;;5043990;28;20036;-57
2022/07/30 10:34:43;;;;;;;88.50;84.10;;;;;;;;;;5041207;28;20024;-57
2022/07/30 10:37:10;;;;;;;78.00;74.07;;;;;;;;;;5040098;28;20090;-57
2022/07/30 10:39:42;;;;;;;70.53;67.00;;;;;;;;;;5040930;28;20100;-58
2022/07/30 10:42:44;;;;;;;71.70;68.10;;;;;;;;;;5041007;28;20501;-58
2022/07/30 10:45:21;;;;;;;80.90;76.88;;;;;;;;;;5041298;28;20017;-59
2022/07/30 10:47:49;;;;;;;79.38;75.35;;;;;;;;;;5039127;28;20137;-59
2022/07/30 10:50:19;;;;;;;87.95;83.60;;;;;;;;;;5040181;28;20033;-59
2022/07/30 10:52:53;;;;;;;69.53;66.03;;;;;;;;;;5044515;28;20367;-59
2022/07/30 10:55:26;;;;;;;77.07;73.25;;;;;;;;;;5040065;28;20398;-59
2022/07/30 10:57:59;;;;;;;94.63;89.95;;;;;;;;;;5039977;28;20028;-59
2022/07/30 11:00:25;;;;;;;90.43;85.97;;;;;;;;;;5043018;28;20025;-59
2022/07/30 11:03:10;;;;;;;93.03;88.47;;;;;;;;;;5039328;28;20037;-59
2022/07/30 11:05:36;;;;;;;77.55;73.72;;;;;;;;;;5040723;28;20029;-59
2022/07/30 11:08:48;;;;;;;100.47;95.47;;;;;;;;;;5043197;28;20355;-59
2022/07/30 11:11:19;;;;;;;81.95;77.90;;;;;;;;;;5041256;28;20037;-60
2022/07/30 11:13:58;;;;;;;117.78;112.00;;;;;;;;;;5039635;28;20309;-60
2022/07/30 11:16:44;;;;;;;85.32;81.10;;;;;;;;;;5036376;28;20064;-59
2022/07/30 11:19:21;;;;;;;89.60;85.18;;;;;;;;;;5041580;28;20025;-59
2022/07/30 11:22:24;;;;;;;134.27;127.65;;;;;;;;;;5038233;28;20048;-60
2022/07/30 11:24:50;;;;;;;117.82;112.03;;;;;;;;;;5039672;28;20041;-59
2022/07/30 11:27:44;;;;;;;250.32;237.93;;;;;;;;;;5041743;28;20092;-59
2022/07/30 11:30:15;;;;;;;154.20;146.57;;;;;;;;;;5038371;28;20509;-60
2022/07/30 11:32:42;;;;;;;174.18;165.48;;;;;;;;;;5040685;28;20068;-60
2022/07/30 11:35:16;;;;;;;191.65;182.07;;;;;;;;;;5036872;28;20154;-59
2022/07/30 11:37:58;;;;;;;193.30;183.75;;;;;;;;;;5040386;28;20472;-59
2022/07/30 11:40:26;;;;;;;195.93;186.30;;;;;;;;;;5040650;28;20028;-59
2022/07/30 11:43:17;;;;;;;234.60;223.02;;;;;;;;;;5042124;28;20131;-59
2022/07/30 11:45:47;;;;;;;172.18;163.65;;;;;;;;;;5039341;28;20988;-59
2022/07/30 11:48:14;;;;;;;223.32;212.32;;;;;;;;;;5038364;28;20098;-60
2022/07/30 11:50:41;;;;;;;225.27;214.13;;;;;;;;;;5036403;28;20064;-59
2022/07/30 11:53:18;;;;;;;237.70;226.00;;;;;;;;;;5039455;28;20368;-59
2022/07/30 11:55:58;;;;;;;210.32;199.88;;;;;;;;;;5040545;28;20489;-59
2022/07/30 11:58:37;;;;;;;216.40;205.75;;;;;;;;;;5029910;28;20033;-60
2022/07/30 12:01:12;;;;;;;207.35;197.00;;;;;;;;;;5038813;28;20047;-59
2022/07/30 12:03:42;;;;;;;290.88;276.50;;;;;;;;;;5040019;28;20044;-60
2022/07/30 12:06:20;;;;;;;273.90;260.35;;;;;;;;;;5039559;28;20473;-59
2022/07/30 12:08:47;;;;;;;248.98;236.70;;;;;;;;;;5037728;28;20040;-60
2022/07/30 12:11:14;;;;;;;286.95;272.83;;;;;;;;;;5042607;28;20044;-60
2022/07/30 12:13:42;;;;;;;275.58;261.88;;;;;;;;;;5040647;28;20040;-60
2022/07/30 12:16:09;;;;;;;247.75;235.57;;;;;;;;;;5039569;28;20071;-60
2022/07/30 12:18:35;;;;;;;288.30;274.08;;;;;;;;;;5038164;28;20040;-60
2022/07/30 12:21:14;;;;;;;281.45;267.60;;;;;;;;;;5034576;28;20025;-60
2022/07/30 12:23:42;;;;;;;269.77;256.52;;;;;;;;;;5034149;28;20106;-60
2022/07/30 12:26:18;;;;;;;251.07;238.80;;;;;;;;;;5039328;28;20033;-60
2022/07/30 12:28:44;;;;;;;252.52;240.18;;;;;;;;;;5041198;28;20082;-60
2022/07/30 12:31:14;;;;;;;260.90;248.10;;;;;;;;;;5037197;28;20041;-60
2022/07/30 12:33:39;;;;;;;237.18;225.55;;;;;;;;;;5034415;28;20033;-59
2022/07/30 12:36:05;;;;;;;239.63;227.85;;;;;;;;;;5039938;28;20025;-59
2022/07/30 12:38:43;;;;;;;208.65;198.48;;;;;;;;;;5039084;28;20410;-59
2022/07/30 12:41:08;;;;;;;245.60;233.55;;;;;;;;;;5034443;28;20032;-59
2022/07/30 12:43:52;;;;;;;225.68;214.57;;;;;;;;;;5041979;28;20056;-59
2022/07/30 12:46:25;;;;;;;230.45;219.15;;;;;;;;;;5040876;28;20152;-59
2022/07/30 12:48:54;;;;;;;174.23;165.55;;;;;;;;;;5036890;28;20060;-59
2022/07/30 12:51:23;;;;;;;148.68;141.30;;;;;;;;;;5036343;28;20425;-59
2022/07/30 12:53:49;;;;;;;171.27;162.75;;;;;;;;;;5036363;28;20424;-59
2022/07/30 12:56:17;;;;;;;193.25;183.75;;;;;;;;;;5038906;28;20051;-59
2022/07/30 12:58:44;;;;;;;199.10;189.30;;;;;;;;;;5037773;28;20028;-58
2022/07/30 13:01:10;;;;;;;194.48;184.90;;;;;;;;;;5033715;28;20703;-59
2022/07/30 13:03:39;;;;;;;209.40;199.10;;;;;;;;;;5037385;28;20037;-59
2022/07/30 13:06:18;;;;;;;184.32;175.23;;;;;;;;;;5036770;28;20028;-59
2022/07/30 13:08:49;;;;;;;225.25;214.25;;;;;;;;;;5038735;28;20111;-58
2022/07/30 13:11:15;;;;;;;233.68;222.20;;;;;;;;;;5035984;28;20033;-58
2022/07/30 13:13:41;;;;;;;212.50;202.07;;;;;;;;;;5039230;28;20137;-59
2022/07/30 13:16:06;;;;;;;191.63;182.23;;;;;;;;;;5035916;28;20430;-59
2022/07/30 13:18:33;;;;;;;204.07;194.05;;;;;;;;;;5038983;28;20419;-58
2022/07/30 13:21:01;;;;;;;174.85;166.23;;;;;;;;;;5037122;28;20125;-59
2022/07/30 13:23:28;;;;;;;171.02;162.60;;;;;;;;;;5033275;28;20025;-58
2022/07/30 13:25:54;;;;;;;189.15;179.85;;;;;;;;;;5037235;28;20116;-58
2022/07/30 13:28:19;;;;;;;176.80;168.02;;;;;;;;;;5039466;28;20124;-56
2022/07/30 13:30:46;;;;;;;134.35;127.65;;;;;;;;;;5040208;28;20044;-58
2022/07/30 13:33:11;;;;;;;147.48;140.15;;;;;;;;;;5038443;28;20032;-58
2022/07/30 13:35:37;;;;;;;167.05;158.80;;;;;;;;;;5039892;28;20043;-58
2022/07/30 13:38:04;;;;;;;183.43;174.38;;;;;;;;;;5037323;28;20118;-58
2022/07/30 13:40:30;;;;;;;147.77;140.40;;;;;;;;;;5033976;28;20474;-58
2022/07/30 13:43:00;;;;;;;137.77;130.95;;;;;;;;;;5036551;28;20393;-58
2022/07/30 13:45:26;;;;;;;120.97;115.00;;;;;;;;;;5042799;28;20622;-59
2022/07/30 13:47:51;;;;;;;124.32;118.22;;;;;;;;;;5038641;28;20072;-58
2022/07/30 13:50:17;;;;;;;111.50;106.00;;;;;;;;;;5039650;28;20105;-57
2022/07/30 13:52:42;;;;;;;112.80;107.20;;;;;;;;;;5042417;28;20198;-57
2022/07/30 13:55:07;;;;;;;126.57;120.35;;;;;;;;;;5037490;28;20372;-58
2022/07/30 13:57:33;;;;;;;117.03;111.20;;;;;;;;;;5039026;28;20052;-58
2022/07/30 13:59:58;;;;;;;130.40;124.00;;;;;;;;;;5040231;28;20033;-57
2022/07/30 14:02:23;;;;;;;98.80;93.90;;;;;;;;;;5041205;28;20032;-57
2022/07/30 14:04:49;;;;;;;98.60;93.75;;;;;;;;;;5039057;28;20052;-57
2022/07/30 14:07:14;;;;;;;112.28;106.75;;;;;;;;;;5040860;28;20463;-57
2022/07/30 14:09:40;;;;;;;115.38;109.70;;;;;;;;;;5039379;28;20040;-57
2022/07/30 14:12:05;;;;;;;133.32;126.72;;;;;;;;;;5035437;28;20037;-57
2022/07/30 14:14:31;;;;;;;118.15;112.35;;;;;;;;;;5040317;28;20217;-57
2022/07/30 14:16:56;;;;;;;131.48;125.03;;;;;;;;;;5038592;28;20467;-57
2022/07/30 14:19:21;;;;;;;118.95;113.07;;;;;;;;;;5040141;28;20017;-57